createdAt,value
2023-03-26T00:01:29.622Z,67.09
2023-03-26T00:03:57.970Z,67.17
2023-03-26T00:06:36.728Z,67.43
2023-03-26T00:09:06.265Z,66.81
2023-03-26T00:11:33.551Z,67.81
2023-03-26T00:14:00.334Z,67.79
2023-03-26T00:16:31.181Z,67.80
2023-03-26T00:18:59.718Z,67.63
2023-03-26T00:21:28.736Z,68.02
2023-03-26T00:23:59.642Z,68.34
2023-03-26T00:26:27.488Z,68.71
2023-03-26T00:28:59.899Z,68.10
2023-03-26T00:31:29.873Z,68.41
2023-03-26T00:33:56.799Z,67.79
2023-03-26T00:36:27.988Z,68.37
2023-03-26T00:38:55.437Z,68.76
2023-03-26T00:41:25.950Z,68.32
2023-03-26T00:43:56.490Z,68.35
2023-03-26T00:46:24.537Z,68.33
2023-03-26T00:48:51.433Z,68.33
2023-03-26T00:51:20.693Z,67.66
2023-03-26T00:53:48.965Z,68.32
2023-03-26T00:56:16.249Z,68.42
2023-03-26T00:58:43.595Z,69.04
2023-03-26T01:01:14.255Z,68.00
2023-03-26T01:03:53.034Z,68.29
2023-03-26T01:06:36.509Z,68.08
2023-03-26T01:09:17.377Z,68.23
2023-03-26T01:11:45.123Z,68.10
2023-03-26T01:14:16.876Z,68.24
2023-03-26T01:16:46.820Z,68.27
2023-03-26T01:19:29.663Z,68.14
2023-03-26T01:21:59.013Z,68.33
2023-03-26T01:24:26.318Z,67.90
2023-03-26T01:27:26.798Z,67.98
2023-03-26T01:29:55.584Z,67.40
2023-03-26T01:32:45.363Z,67.76
2023-03-26T01:35:24.688Z,67.39
2023-03-26T01:37:52.604Z,67.40
2023-03-26T01:40:38.572Z,67.40
2023-03-26T01:43:18.029Z,67.71
2023-03-26T01:45:47.799Z,68.15
2023-03-26T01:48:16.450Z,67.88
2023-03-26T01:50:43.775Z,68.06
2023-03-26T01:53:13.402Z,68.47
2023-03-26T01:55:56.240Z,68.36
2023-03-26T01:58:34.889Z,68.38
2023-03-26T02:01:31.073Z,67.78
2023-03-26T02:04:08.845Z,68.17
2023-03-26T02:06:44.612Z,68.23
2023-03-26T02:09:24.873Z,68.41
2023-03-26T02:11:51.878Z,67.82
2023-03-26T02:14:18.926Z,68.34
2023-03-26T02:16:46.837Z,68.26
2023-03-26T02:19:21.408Z,68.29
2023-03-26T02:21:51.449Z,68.41
2023-03-26T02:24:20.288Z,67.92
2023-03-26T02:26:48.503Z,68.39
2023-03-26T02:29:20.375Z,68.20
2023-03-26T02:31:49.076Z,68.15
2023-03-26T02:34:16.997Z,68.47
2023-03-26T02:36:50.515Z,68.35
2023-03-26T02:39:17.491Z,68.61
2023-03-26T02:41:52.075Z,68.21
2023-03-26T02:44:19.035Z,68.55
2023-03-26T02:46:58.121Z,68.27
2023-03-26T02:49:44.113Z,69.06
2023-03-26T02:52:18.545Z,69.35
2023-03-26T02:54:47.066Z,69.01
2023-03-26T02:57:20.046Z,69.10
2023-03-26T03:00:15.008Z,69.48
2023-03-26T03:02:48.534Z,69.02
2023-03-26T03:05:33.802Z,69.69
2023-03-26T03:08:24.327Z,69.40
2023-03-26T03:11:24.858Z,69.52
2023-03-26T03:13:53.400Z,69.85
2023-03-26T03:16:23.357Z,69.25
2023-03-26T03:18:54.573Z,69.34
2023-03-26T03:21:23.938Z,69.86
2023-03-26T03:23:51.254Z,69.24
2023-03-26T03:26:21.915Z,69.26
2023-03-26T03:28:52.140Z,69.22
2023-03-26T03:31:18.982Z,69.34
2023-03-26T03:33:46.546Z,69.13
2023-03-26T03:36:19.706Z,69.75
2023-03-26T03:38:48.975Z,69.61
2023-03-26T03:41:19.450Z,68.86
2023-03-26T03:43:47.158Z,69.45
2023-03-26T03:46:23.156Z,69.46
2023-03-26T03:48:50.357Z,69.35
2023-03-26T03:51:22.627Z,69.96
2023-03-26T03:53:55.810Z,69.51
2023-03-26T03:56:34.194Z,69.94
2023-03-26T03:59:27.033Z,69.95
2023-03-26T04:01:53.928Z,69.85
2023-03-26T04:04:28.790Z,70.56
2023-03-26T04:07:00.278Z,69.86
2023-03-26T04:09:34.098Z,70.78
2023-03-26T04:12:05.976Z,70.56
2023-03-26T04:14:39.774Z,70.21
2023-03-26T04:17:15.459Z,70.52
2023-03-26T04:19:44.297Z,70.29
2023-03-26T04:22:13.815Z,70.10
2023-03-26T04:24:54.458Z,70.47
2023-03-26T04:27:32.121Z,70.87
2023-03-26T04:30:20.648Z,71.12
2023-03-26T04:32:58.608Z,70.89
2023-03-26T04:35:30.410Z,72.74
2023-03-26T04:37:57.733Z,73.92
2023-03-26T04:40:34.715Z,74.12
2023-03-26T04:43:14.436Z,74.87
2023-03-26T04:46:02.911Z,75.26
2023-03-26T04:48:32.116Z,75.47
2023-03-26T04:50:59.277Z,76.90
2023-03-26T04:53:26.607Z,78.94
2023-03-26T04:56:51.191Z,78.93
2023-03-26T04:59:30.226Z,79.66
2023-03-26T05:01:59.919Z,81.24
2023-03-26T05:04:34.092Z,84.22
2023-03-26T05:07:02.220Z,85.16
2023-03-26T05:09:46.137Z,85.95
2023-03-26T05:12:31.490Z,86.45
2023-03-26T05:15:09.774Z,85.22
2023-03-26T05:17:56.590Z,84.40
2023-03-26T05:20:30.219Z,84.38
2023-03-26T05:22:57.377Z,84.03
2023-03-26T05:25:35.841Z,84.17
2023-03-26T05:28:05.869Z,83.16
2023-03-26T05:31:21.503Z,82.75
2023-03-26T05:33:50.830Z,83.21
2023-03-26T05:36:19.154Z,83.32
2023-03-26T05:38:59.088Z,83.76
2023-03-26T05:41:44.613Z,83.40
2023-03-26T05:44:11.670Z,83.29
2023-03-26T05:46:38.943Z,83.31
2023-03-26T05:49:06.508Z,82.85
2023-03-26T05:51:35.838Z,82.76
2023-03-26T05:54:21.171Z,82.86
2023-03-26T05:57:06.683Z,82.57
2023-03-26T05:59:52.269Z,83.38
2023-03-26T06:02:37.678Z,82.83
2023-03-26T06:05:37.292Z,82.28
2023-03-26T06:08:19.528Z,82.10
2023-03-26T06:11:05.568Z,82.20
2023-03-26T06:13:35.757Z,81.85
2023-03-26T06:16:02.788Z,81.91
2023-03-26T06:18:32.833Z,81.81
2023-03-26T06:21:18.419Z,81.89
2023-03-26T06:24:05.954Z,81.06
2023-03-26T06:27:04.059Z,81.27
2023-03-26T06:29:48.449Z,81.96
2023-03-26T06:32:25.509Z,81.26
2023-03-26T06:34:56.909Z,81.46
2023-03-26T06:37:24.184Z,81.78
2023-03-26T06:39:56.602Z,81.97
2023-03-26T06:43:07.450Z,81.95
2023-03-26T06:45:52.583Z,82.05
2023-03-26T06:48:38.637Z,80.79
2023-03-26T06:51:18.274Z,81.35
2023-03-26T06:54:11.372Z,80.90
2023-03-26T06:56:56.848Z,81.38
2023-03-26T06:59:32.583Z,80.82
2023-03-26T07:02:19.219Z,80.15
2023-03-26T07:05:09.929Z,81.59
2023-03-26T07:07:55.930Z,81.66
2023-03-26T07:10:41.745Z,82.86
2023-03-26T07:13:28.574Z,83.02
2023-03-26T07:16:15.271Z,82.63
2023-03-26T07:19:10.945Z,83.22
2023-03-26T07:21:40.094Z,82.47
2023-03-26T07:24:23.855Z,82.44
2023-03-26T07:27:32.412Z,82.34
2023-03-26T07:30:05.872Z,81.87
2023-03-26T07:33:35.666Z,81.75
2023-03-26T07:36:47.702Z,80.67
2023-03-26T07:39:59.273Z,80.41
2023-03-26T07:42:59.305Z,80.81
2023-03-26T07:45:45.990Z,82.08
2023-03-26T07:48:49.837Z,82.26
2023-03-26T07:51:49.617Z,82.54
2023-03-26T07:54:30.589Z,83.36
2023-03-26T07:58:04.348Z,83.15
2023-03-26T08:01:00.470Z,82.65
2023-03-26T08:03:42.453Z,82.09
2023-03-26T08:06:44.641Z,82.17
2023-03-26T08:09:49.713Z,81.28
2023-03-26T08:12:50.545Z,80.66
2023-03-26T08:15:29.520Z,79.35
2023-03-26T08:18:06.482Z,77.65
2023-03-26T08:20:49.013Z,77.31
2023-03-26T08:23:23.657Z,76.34
2023-03-26T08:26:03.460Z,75.24
2023-03-26T08:28:59.409Z,76.45
2023-03-26T08:31:39.325Z,76.66
2023-03-26T08:34:09.904Z,74.97
2023-03-26T08:36:37.942Z,74.82
2023-03-26T08:39:05.251Z,73.32
2023-03-26T08:41:58.624Z,73.03
2023-03-26T08:44:48.865Z,72.56
2023-03-26T08:47:50.964Z,72.62
2023-03-26T08:50:17.746Z,74.01
2023-03-26T08:53:21.701Z,73.81
2023-03-26T08:56:04.498Z,72.28
2023-03-26T08:59:06.574Z,73.05
2023-03-26T09:02:12.001Z,72.88
2023-03-26T09:05:04.011Z,72.06
2023-03-26T09:07:59.824Z,71.94
2023-03-26T09:10:38.540Z,72.14
2023-03-26T09:13:32.601Z,72.06
2023-03-26T09:16:21.610Z,72.79
2023-03-26T09:19:07.246Z,73.08
2023-03-26T09:22:03.278Z,73.09
2023-03-26T09:25:05.437Z,73.50
2023-03-26T09:28:02.544Z,73.04
2023-03-26T09:30:44.487Z,71.03
2023-03-26T09:33:29.366Z,70.94
2023-03-26T09:36:21.797Z,71.54
2023-03-26T09:39:10.020Z,71.05
2023-03-26T09:41:44.160Z,71.87
2023-03-26T09:44:25.685Z,71.45
2023-03-26T09:47:04.619Z,70.25
2023-03-26T09:49:46.463Z,70.43
2023-03-26T09:52:33.195Z,69.15
2023-03-26T09:55:15.586Z,70.00
2023-03-26T09:58:02.449Z,69.54
2023-03-26T10:00:39.161Z,68.31
2023-03-26T10:03:34.622Z,67.03
2023-03-26T10:06:07.169Z,66.89
2023-03-26T10:08:47.546Z,66.00
2023-03-26T10:11:39.272Z,65.87
2023-03-26T10:14:33.333Z,64.33
2023-03-26T10:17:05.024Z,64.41
2023-03-26T10:19:56.775Z,61.36
2023-03-26T10:22:48.857Z,60.61
2023-03-26T10:25:38.920Z,60.82
2023-03-26T10:28:26.260Z,61.33
2023-03-26T10:31:06.464Z,59.35
2023-03-26T10:33:59.094Z,58.76
2023-03-26T10:36:34.936Z,57.00
2023-03-26T10:39:37.883Z,59.59
2023-03-26T10:42:18.975Z,60.97
2023-03-26T10:45:14.125Z,62.26
2023-03-26T10:47:59.387Z,61.26
2023-03-26T10:50:32.076Z,60.03
2023-03-26T10:53:10.264Z,59.74
2023-03-26T10:55:47.496Z,60.74
2023-03-26T10:58:23.981Z,61.34
2023-03-26T11:01:04.788Z,60.67
2023-03-26T11:03:52.081Z,60.58
2023-03-26T11:06:30.990Z,61.19
2023-03-26T11:09:22.799Z,60.27
2023-03-26T11:12:01.643Z,57.23
2023-03-26T11:14:53.523Z,58.54
2023-03-26T11:17:40.394Z,56.82
2023-03-26T11:20:11.251Z,54.13
2023-03-26T11:22:58.312Z,55.57
2023-03-26T11:25:45.641Z,55.22
2023-03-26T11:28:12.995Z,55.67
2023-03-26T11:30:46.830Z,55.25
2023-03-26T11:33:32.817Z,55.75
2023-03-26T11:36:06.785Z,54.38
2023-03-26T11:38:39.483Z,54.19
2023-03-26T11:41:22.778Z,55.34
2023-03-26T11:44:24.819Z,53.79
2023-03-26T11:46:58.924Z,54.94
2023-03-26T11:49:27.092Z,55.30
2023-03-26T11:51:54.333Z,55.35
2023-03-26T11:54:21.118Z,54.48
2023-03-26T11:57:04.481Z,52.26
2023-03-26T11:59:57.563Z,51.35
2023-03-26T12:02:32.481Z,52.57
2023-03-26T12:05:29.444Z,49.47
2023-03-26T12:08:04.265Z,50.39
2023-03-26T12:10:39.381Z,47.89
2023-03-26T12:13:36.519Z,45.49
2023-03-26T12:16:21.863Z,43.26
2023-03-26T12:19:06.265Z,42.88
2023-03-26T12:21:51.643Z,42.79
2023-03-26T12:24:29.414Z,41.50
2023-03-26T12:27:02.033Z,41.52
2023-03-26T12:29:34.498Z,44.47
2023-03-26T12:32:14.207Z,47.04
2023-03-26T12:34:41.545Z,47.96
2023-03-26T12:37:38.574Z,48.63
2023-03-26T12:40:28.098Z,50.61
2023-03-26T12:44:52.618Z,50.81
2023-03-26T12:45:44.507Z,51.85
2023-03-26T12:48:15.553Z,51.28
2023-03-26T12:51:01.534Z,51.13
2023-03-26T12:53:44.640Z,51.53
2023-03-26T12:56:27.350Z,52.20
2023-03-26T12:59:15.603Z,53.26
2023-03-26T13:01:59.040Z,54.45
2023-03-26T13:05:02.255Z,55.20
2023-03-26T13:07:54.711Z,56.65
2023-03-26T13:10:33.535Z,56.82
2023-03-26T13:13:25.221Z,56.25
2023-03-26T13:15:57.133Z,57.17
2023-03-26T13:18:50.893Z,57.59
2023-03-26T13:21:17.778Z,59.15
2023-03-26T13:24:11.913Z,59.60
2023-03-26T13:27:00.675Z,59.47
2023-03-26T13:29:56.688Z,60.42
2023-03-26T13:33:14.887Z,59.78
2023-03-26T13:35:50.753Z,60.00
2023-03-26T13:38:32.863Z,58.73
2023-03-26T13:41:31.866Z,60.45
2023-03-26T13:44:36.061Z,62.79
2023-03-26T13:47:12.720Z,67.08
2023-03-26T13:49:53.666Z,71.74
2023-03-26T13:52:44.924Z,74.15
2023-03-26T13:55:30.348Z,72.72
2023-03-26T13:58:07.182Z,72.41
2023-03-26T14:01:07.442Z,71.01
2023-03-26T14:03:42.924Z,70.21
2023-03-26T14:06:26.380Z,68.01
2023-03-26T14:09:06.662Z,65.64
2023-03-26T14:11:56.605Z,64.80
2023-03-26T14:14:43.449Z,63.66
2023-03-26T14:17:38.916Z,63.69
2023-03-26T14:20:17.673Z,63.98
2023-03-26T14:22:57.269Z,63.93
2023-03-26T14:25:45.922Z,63.86
2023-03-26T14:28:46.842Z,64.42
2023-03-26T14:34:16.926Z,64.85
2023-03-26T14:37:27.488Z,64.38
2023-03-26T14:40:15.037Z,64.42
2023-03-26T14:42:56.500Z,64.00
2023-03-26T14:45:42.077Z,64.21
2023-03-26T14:48:36.803Z,64.21
2023-03-26T14:51:15.227Z,63.47
2023-03-26T14:53:47.516Z,62.99
2023-03-26T14:56:59.060Z,64.29
2023-03-26T14:59:51.130Z,64.51
2023-03-26T15:02:55.491Z,65.40
2023-03-26T15:05:59.522Z,65.02
2023-03-26T15:08:44.757Z,66.87
2023-03-26T15:11:24.193Z,66.46
2023-03-26T15:14:28.783Z,66.78
2023-03-26T15:17:23.639Z,67.60
2023-03-26T15:19:56.495Z,67.42
2023-03-26T15:23:08.176Z,68.25
2023-03-26T15:26:07.816Z,68.68
2023-03-26T15:28:43.689Z,69.55
2023-03-26T15:31:31.768Z,71.24
2023-03-26T15:34:12.136Z,67.07
2023-03-26T15:37:17.173Z,68.52
2023-03-26T15:40:08.136Z,70.42
2023-03-26T15:42:53.671Z,70.95
2023-03-26T15:45:38.866Z,71.02
2023-03-26T15:48:12.445Z,71.65
2023-03-26T15:50:58.254Z,71.81
2023-03-26T15:53:43.707Z,71.17
2023-03-26T15:56:17.693Z,70.82
2023-03-26T15:59:16.524Z,71.26
2023-03-26T16:02:04.105Z,70.83
2023-03-26T16:04:52.303Z,70.50
2023-03-26T16:07:34.301Z,70.66
2023-03-26T16:10:02.044Z,70.76
2023-03-26T16:12:33.147Z,70.60
2023-03-26T16:15:06.053Z,70.67
2023-03-26T16:18:15.811Z,70.69
2023-03-26T16:20:50.781Z,70.87
2023-03-26T16:23:47.473Z,71.14
2023-03-26T16:26:52.289Z,70.71
2023-03-26T16:29:19.238Z,70.53
2023-03-26T16:32:10.688Z,71.05
2023-03-26T16:34:53.026Z,71.23
2023-03-26T16:37:32.060Z,70.88
2023-03-26T16:40:17.490Z,71.22
2023-03-26T16:43:11.689Z,71.86
2023-03-26T16:45:49.460Z,71.30
2023-03-26T16:48:47.203Z,71.08
2023-03-26T16:51:20.124Z,71.34
2023-03-26T16:54:07.185Z,71.48
2023-03-26T16:56:48.906Z,71.48
2023-03-26T17:00:04.587Z,71.38
2023-03-26T17:02:57.189Z,71.89
2023-03-26T17:05:51.064Z,72.17
2023-03-26T17:08:35.600Z,72.68
2023-03-26T17:11:21.530Z,72.81
2023-03-26T17:14:03.533Z,72.38
2023-03-26T17:16:43.359Z,72.63
2023-03-26T17:19:17.312Z,72.66
2023-03-26T17:21:58.695Z,72.78
2023-03-26T17:24:50.902Z,73.19
2023-03-26T17:28:30.219Z,72.77
2023-03-26T17:31:06.714Z,72.91
2023-03-26T17:33:42.010Z,72.50
2023-03-26T17:36:11.534Z,73.01
2023-03-26T17:38:45.302Z,72.38
2023-03-26T17:41:17.675Z,72.70
2023-03-26T17:43:52.077Z,72.37
2023-03-26T17:46:21.860Z,71.42
2023-03-26T17:48:56.983Z,71.75
2023-03-26T17:51:38.376Z,71.80
2023-03-26T17:54:27.547Z,71.42
2023-03-26T17:56:58.013Z,71.17
2023-03-26T17:59:27.640Z,71.76
2023-03-26T18:01:58.681Z,72.30
2023-03-26T18:04:32.749Z,72.22
2023-03-26T18:07:04.004Z,72.33
2023-03-26T18:09:52.025Z,72.63
2023-03-26T18:12:37.502Z,72.87
2023-03-26T18:15:23.000Z,72.62
2023-03-26T18:17:50.492Z,73.14
2023-03-26T18:20:26.972Z,73.79
2023-03-26T18:22:54.907Z,73.98
2023-03-26T18:25:28.865Z,74.41
2023-03-26T18:27:57.379Z,74.42
2023-03-26T18:30:26.293Z,74.19
2023-03-26T18:33:00.959Z,74.61
2023-03-26T18:35:42.036Z,74.76
2023-03-26T18:38:17.108Z,74.68
2023-03-26T18:40:46.121Z,74.14
2023-03-26T18:43:28.849Z,75.45
2023-03-26T18:46:01.476Z,76.06
2023-03-26T18:48:30.139Z,76.06
2023-03-26T18:51:04.945Z,76.75
2023-03-26T18:53:45.613Z,76.73
2023-03-26T18:56:20.975Z,76.92
2023-03-26T18:58:52.579Z,76.83
2023-03-26T19:01:25.916Z,76.91
2023-03-26T19:03:54.601Z,76.91
2023-03-26T19:06:23.323Z,76.84
2023-03-26T19:08:50.659Z,77.15
2023-03-26T19:11:18.166Z,77.21
2023-03-26T19:13:58.594Z,77.61
2023-03-26T19:16:33.883Z,77.55
2023-03-26T19:19:05.254Z,77.43
2023-03-26T19:21:34.807Z,77.88
2023-03-26T19:24:04.003Z,77.95
2023-03-26T19:26:33.877Z,78.37
2023-03-26T19:29:05.622Z,78.50
2023-03-26T19:31:39.206Z,79.24
2023-03-26T19:34:13.667Z,78.93
2023-03-26T19:37:04.300Z,78.93
2023-03-26T19:39:41.633Z,79.13
2023-03-26T19:42:15.913Z,79.27
2023-03-26T19:44:43.612Z,79.03
2023-03-26T19:47:19.785Z,79.26
2023-03-26T19:49:56.091Z,79.35
2023-03-26T19:52:26.662Z,79.75
2023-03-26T19:55:15.273Z,79.79
2023-03-26T19:57:43.100Z,79.54
2023-03-26T20:00:15.213Z,79.69
2023-03-26T20:02:45.376Z,80.20
2023-03-26T20:05:23.681Z,79.94
2023-03-26T20:07:50.987Z,80.10
2023-03-26T20:10:18.302Z,80.00
2023-03-26T20:12:45.456Z,80.34
2023-03-26T20:15:21.301Z,81.17
2023-03-26T20:17:52.378Z,81.36
2023-03-26T20:20:19.901Z,81.46
2023-03-26T20:22:48.301Z,81.23
2023-03-26T20:25:19.743Z,81.47
2023-03-26T20:27:46.882Z,81.30
2023-03-26T20:30:16.437Z,81.16
2023-03-26T20:32:46.482Z,81.33
2023-03-26T20:35:35.542Z,81.07
2023-03-26T20:38:03.193Z,81.19
2023-03-26T20:40:30.969Z,81.37
2023-03-26T20:42:57.666Z,80.88
2023-03-26T20:45:26.202Z,81.19
2023-03-26T20:47:54.724Z,80.90
2023-03-26T20:50:23.213Z,81.52
2023-03-26T20:52:50.552Z,81.93
2023-03-26T20:55:21.483Z,81.76
2023-03-26T20:57:49.026Z,82.90
2023-03-26T21:00:23.445Z,83.00
2023-03-26T21:02:54.289Z,83.08
2023-03-26T21:05:24.587Z,82.63
2023-03-26T21:07:52.088Z,83.10
2023-03-26T21:10:22.249Z,82.69
2023-03-26T21:12:53.198Z,83.20
2023-03-26T21:15:23.503Z,83.36
2023-03-26T21:17:52.107Z,83.79
2023-03-26T21:20:19.867Z,83.20
2023-03-26T21:22:46.558Z,84.21
2023-03-26T21:25:21.624Z,83.74
2023-03-26T21:28:29.158Z,83.67
2023-03-26T21:31:04.516Z,83.76
2023-03-26T21:33:31.588Z,83.73
2023-03-26T21:36:01.943Z,83.16
2023-03-26T21:38:32.633Z,83.95
2023-03-26T21:41:02.673Z,83.80
2023-03-26T21:43:30.727Z,83.48
2023-03-26T21:45:58.774Z,84.00
2023-03-26T21:48:26.437Z,83.63
2023-03-26T21:50:54.365Z,83.51
2023-03-26T21:53:22.671Z,83.76
2023-03-26T21:56:03.500Z,83.45
2023-03-26T21:58:40.015Z,83.24
2023-03-26T22:01:24.255Z,84.35
2023-03-26T22:04:10.878Z,84.21
2023-03-26T22:06:46.236Z,84.57
2023-03-26T22:09:16.589Z,84.08
2023-03-26T22:11:45.656Z,83.88
2023-03-26T22:14:13.480Z,84.01
2023-03-26T22:16:41.656Z,84.20
2023-03-26T22:19:08.813Z,84.14
2023-03-26T22:21:35.974Z,83.46
2023-03-26T22:24:04.261Z,84.36
2023-03-26T22:26:31.553Z,83.51
2023-03-26T22:28:58.556Z,83.29
2023-03-26T22:31:26.531Z,83.34
2023-03-26T22:33:54.582Z,83.56
2023-03-26T22:36:22.641Z,82.29
2023-03-26T22:38:53.264Z,82.48
2023-03-26T22:41:20.219Z,82.63
2023-03-26T22:43:47.067Z,81.72
2023-03-26T22:46:14.410Z,81.89
2023-03-26T22:48:41.465Z,82.04
2023-03-26T22:51:09.221Z,82.15
2023-03-26T22:53:36.552Z,81.96
2023-03-26T22:56:04.282Z,82.11
2023-03-26T22:58:33.736Z,82.54
2023-03-26T23:01:08.381Z,82.27
2023-03-26T23:03:36.928Z,83.09
2023-03-26T23:06:07.110Z,82.85
2023-03-26T23:08:35.259Z,82.68
2023-03-26T23:11:02.521Z,82.55
2023-03-26T23:13:29.374Z,82.14
2023-03-26T23:15:57.264Z,82.15
2023-03-26T23:18:24.841Z,82.03
2023-03-26T23:20:56.832Z,82.33
2023-03-26T23:23:29.384Z,81.94
2023-03-26T23:25:58.892Z,82.46
2023-03-26T23:28:27.433Z,82.17
2023-03-26T23:30:55.253Z,82.57
2023-03-26T23:33:25.540Z,82.61
2023-03-26T23:35:59.927Z,82.81
2023-03-26T23:38:43.480Z,82.96
2023-03-26T23:41:15.154Z,82.78
2023-03-26T23:43:54.635Z,82.65
2023-03-26T23:46:24.504Z,82.98
2023-03-26T23:48:52.281Z,83.30
2023-03-26T23:51:24.150Z,83.25
2023-03-26T23:53:51.472Z,83.21
2023-03-26T23:56:18.344Z,83.52
2023-03-26T23:58:45.417Z,82.92
